createdAt,value
2018-06-18T00:00:58.877Z,1.25
2018-06-18T00:03:27.211Z,1.70
2018-06-18T00:05:55.468Z,1.40
2018-06-18T00:08:24.296Z,1.40
2018-06-18T00:10:52.600Z,1.47
2018-06-18T00:13:20.992Z,1.30
2018-06-18T00:15:49.355Z,1.55
2018-06-18T00:18:17.708Z,1.27
2018-06-18T00:20:45.936Z,1.95
2018-06-18T00:23:14.269Z,1.62
2018-06-18T00:25:42.550Z,1.45
2018-06-18T00:28:10.791Z,1.55
2018-06-18T00:30:39.108Z,2.10
2018-06-18T00:33:07.819Z,1.65
2018-06-18T00:35:36.195Z,1.82
2018-06-18T00:38:04.450Z,1.60
2018-06-18T00:40:32.769Z,1.67
2018-06-18T00:43:01.147Z,1.70
2018-06-18T00:45:29.374Z,2.00
2018-06-18T00:47:57.679Z,1.50
2018-06-18T00:50:25.929Z,1.77
2018-06-18T00:52:54.264Z,1.47
2018-06-18T00:55:33.875Z,1.62
2018-06-18T00:58:02.201Z,1.92
2018-06-18T01:00:30.485Z,1.72
2018-06-18T01:02:58.898Z,1.77
2018-06-18T01:05:27.183Z,1.60
2018-06-18T01:07:55.487Z,1.85
2018-06-18T01:10:23.782Z,1.85
2018-06-18T01:12:52.260Z,1.67
2018-06-18T01:15:20.485Z,1.90
2018-06-18T01:17:48.794Z,2.10
2018-06-18T01:20:17.028Z,2.37
2018-06-18T01:22:49.420Z,1.80
2018-06-18T01:25:17.743Z,2.05
2018-06-18T01:27:45.963Z,2.10
2018-06-18T01:30:14.233Z,2.20
2018-06-18T01:32:42.549Z,1.98
2018-06-18T01:35:10.851Z,2.22
2018-06-18T01:39:15.627Z,1.95
2018-06-18T01:41:44.015Z,2.10
2018-06-18T01:44:12.404Z,2.02
2018-06-18T01:46:40.669Z,2.00
2018-06-18T01:49:08.957Z,1.92
2018-06-18T01:51:37.224Z,2.27
2018-06-18T01:54:05.526Z,1.80
2018-06-18T01:56:33.825Z,1.97
2018-06-18T01:59:02.166Z,2.20
2018-06-18T02:01:31.419Z,2.07
2018-06-18T02:03:59.671Z,2.00
2018-06-18T02:06:27.916Z,2.13
2018-06-18T02:08:56.157Z,1.37
2018-06-18T02:11:24.449Z,2.00
2018-06-18T02:13:53.317Z,1.60
2018-06-18T02:16:21.703Z,1.60
2018-06-18T02:18:50.004Z,1.97
2018-06-18T02:21:18.335Z,1.60
2018-06-18T02:23:46.596Z,1.80
2018-06-18T02:26:14.837Z,1.80
2018-06-18T02:28:48.408Z,2.07
2018-06-18T02:31:22.082Z,1.87
2018-06-18T02:33:55.609Z,1.70
2018-06-18T02:36:29.127Z,2.73
2018-06-18T02:39:02.797Z,1.90
2018-06-18T02:41:31.139Z,2.13
2018-06-18T03:01:24.058Z,1.63
2018-06-18T03:03:52.360Z,2.30
2018-06-18T03:06:20.695Z,2.00
2018-06-18T03:08:48.999Z,2.33
2018-06-18T03:11:17.263Z,2.13
2018-06-18T03:13:45.523Z,1.80
2018-06-18T03:16:13.919Z,2.47
2018-06-18T03:18:47.583Z,2.60
2018-06-18T03:21:21.153Z,2.30
2018-06-18T03:23:54.828Z,2.17
2018-06-18T03:26:28.344Z,1.90
2018-06-18T03:29:19.186Z,2.37
2018-06-18T03:31:47.474Z,1.80
2018-06-18T03:34:15.723Z,2.30
2018-06-18T03:36:45.106Z,2.37
2018-06-18T03:39:14.432Z,2.10
2018-06-18T03:41:45.131Z,2.27
2018-06-18T03:44:16.340Z,2.30
2018-06-18T03:46:44.614Z,2.37
2018-06-18T03:49:12.956Z,2.53
2018-06-18T03:51:41.273Z,2.30
2018-06-18T03:54:09.575Z,2.20
2018-06-18T03:56:37.786Z,2.53
2018-06-18T03:59:06.142Z,2.17
2018-06-18T04:01:49.944Z,2.37
2018-06-18T04:04:23.557Z,1.63
2018-06-18T04:06:57.131Z,2.20
2018-06-18T04:09:30.649Z,2.17
2018-06-18T04:12:06.831Z,2.45
2018-06-18T04:14:35.378Z,2.00
2018-06-18T04:17:03.665Z,2.00
2018-06-18T04:22:07.966Z,1.90
2018-06-18T04:24:36.246Z,2.30
2018-06-18T04:27:04.619Z,1.77
2018-06-18T04:29:32.943Z,2.33
2018-06-18T04:32:01.223Z,2.27
2018-06-18T04:34:34.771Z,2.50
2018-06-18T04:37:03.132Z,2.00
2018-06-18T04:39:31.391Z,1.47
2018-06-18T04:42:05.096Z,2.50
2018-06-18T04:44:38.605Z,2.23
2018-06-18T04:47:12.322Z,1.90
2018-06-18T04:49:45.821Z,1.70
2018-06-18T04:52:14.105Z,2.10
2018-06-18T04:54:42.360Z,2.30
2018-06-18T04:57:11.510Z,1.93
2018-06-18T04:59:42.722Z,2.20
2018-06-18T05:02:10.965Z,1.97
2018-06-18T05:04:39.317Z,2.50
2018-06-18T05:07:07.777Z,2.50
2018-06-18T05:09:54.236Z,1.90
2018-06-18T05:12:22.756Z,2.20
2018-06-18T05:14:51.487Z,2.60
2018-06-18T05:17:19.835Z,2.10
2018-06-18T05:19:48.189Z,1.80
2018-06-18T05:22:18.515Z,1.70
2018-06-18T05:24:46.937Z,2.20
2018-06-18T05:27:15.375Z,2.43
2018-06-18T05:29:43.687Z,2.10
2018-06-18T05:32:11.945Z,2.17
2018-06-18T05:34:40.234Z,2.63
2018-06-18T05:37:12.180Z,2.63
2018-06-18T05:39:40.445Z,2.15
2018-06-18T05:42:08.766Z,2.42
2018-06-18T05:44:37.020Z,2.37
2018-06-18T05:47:05.416Z,2.40
2018-06-18T05:49:33.640Z,2.20
2018-06-18T05:52:01.943Z,2.43
2018-06-18T05:54:30.185Z,2.80
2018-06-18T05:56:58.469Z,2.00
2018-06-18T05:59:26.702Z,2.30
2018-06-18T06:01:54.973Z,2.27
2018-06-18T06:04:23.228Z,2.12
2018-06-18T06:06:51.453Z,1.95
2018-06-18T06:28:23.703Z,2.03
2018-06-18T06:30:51.935Z,1.67
2018-06-18T06:33:21.015Z,1.70
2018-06-18T06:35:49.635Z,1.95
2018-06-18T06:38:18.204Z,1.77
2018-06-18T06:40:46.534Z,1.60
2018-06-18T06:43:14.856Z,1.80
2018-06-18T06:45:43.126Z,1.52
2018-06-18T06:48:11.385Z,1.95
2018-06-18T06:50:39.673Z,2.00
2018-06-18T06:53:07.974Z,1.57
2018-06-18T06:55:36.296Z,1.90
2018-06-18T06:58:04.694Z,2.30
2018-06-18T07:00:33.002Z,1.65
2018-06-18T07:03:01.278Z,1.87
2018-06-18T07:05:29.999Z,2.00
2018-06-18T07:07:58.374Z,1.60
2018-06-18T07:10:26.735Z,1.90
2018-06-18T07:12:55.094Z,1.95
2018-06-18T07:15:23.349Z,2.12
2018-06-18T07:17:51.638Z,2.02
2018-06-18T07:20:19.952Z,2.22
2018-06-18T07:22:48.338Z,1.75
2018-06-18T07:25:16.609Z,1.60
2018-06-18T07:27:44.959Z,1.92
2018-06-18T07:30:13.337Z,1.57
2018-06-18T07:32:41.677Z,1.77
2018-06-18T07:35:10.092Z,1.62
2018-06-18T07:37:38.387Z,1.52
2018-06-18T07:40:06.757Z,1.42
2018-06-18T07:42:35.196Z,2.05
2018-06-18T07:45:03.578Z,1.32
2018-06-18T07:47:31.902Z,1.12
2018-06-18T07:50:01.102Z,1.20
2018-06-18T07:52:29.987Z,1.10
2018-06-18T07:54:58.336Z,1.27
2018-06-18T07:57:26.682Z,1.70
2018-06-18T07:59:54.943Z,1.60
2018-06-18T08:02:23.229Z,2.58
2018-06-18T08:04:51.594Z,1.70
2018-06-18T08:07:19.931Z,1.35
2018-06-18T08:09:48.533Z,1.40
2018-06-18T08:12:16.984Z,1.52
2018-06-18T08:14:45.457Z,1.35
2018-06-18T08:17:13.813Z,1.35
2018-06-18T08:19:42.371Z,1.30
2018-06-18T08:22:10.939Z,1.57
2018-06-18T08:24:39.397Z,1.05
2018-06-18T08:27:07.726Z,1.30
2018-06-18T08:29:36.355Z,1.60
2018-06-18T08:32:05.405Z,1.27
2018-06-18T08:34:33.869Z,1.22
2018-06-18T08:37:02.411Z,1.27
2018-06-18T08:39:31.501Z,1.12
2018-06-18T08:41:59.915Z,0.95
2018-06-18T08:44:28.517Z,1.10
2018-06-18T08:46:57.452Z,1.62
2018-06-18T08:49:26.162Z,1.00
2018-06-18T08:51:59.808Z,1.20
2018-06-18T08:54:33.570Z,1.10
2018-06-18T08:57:07.093Z,1.05
2018-06-18T08:59:40.699Z,1.87
2018-06-18T09:02:09.069Z,1.02
2018-06-18T09:04:43.012Z,1.25
2018-06-18T09:07:16.113Z,0.80
2018-06-18T09:09:45.211Z,1.02
2018-06-18T09:12:13.492Z,1.07
2018-06-18T09:14:43.775Z,1.20
2018-06-18T09:17:12.192Z,1.55
2018-06-18T09:19:40.857Z,1.40
2018-06-18T09:22:09.455Z,1.52
2018-06-18T09:24:38.848Z,1.80
2018-06-18T09:27:14.191Z,1.57
2018-06-18T09:29:47.690Z,1.60
2018-06-18T09:32:16.164Z,1.95
2018-06-18T09:34:44.973Z,1.85
2018-06-18T09:37:13.814Z,1.52
2018-06-18T09:39:42.181Z,1.87
2018-06-18T09:42:10.584Z,1.80
2018-06-18T09:44:38.931Z,2.42
2018-06-18T09:47:07.228Z,2.10
2018-06-18T09:49:40.922Z,2.08
2018-06-18T09:52:14.437Z,2.85
2018-06-18T09:54:48.009Z,2.17
2018-06-18T09:57:27.662Z,2.50
2018-06-18T10:00:13.795Z,2.00
2018-06-18T10:02:42.207Z,2.12
2018-06-18T10:05:10.746Z,2.80
2018-06-18T10:07:42.217Z,2.17
2018-06-18T10:10:11.526Z,2.05
2018-06-18T10:12:39.915Z,1.92
2018-06-18T10:15:09.859Z,1.82
2018-06-18T10:17:38.303Z,1.90
2018-06-18T10:20:06.735Z,1.95
2018-06-18T10:22:35.088Z,1.87
2018-06-18T10:25:03.484Z,2.00
2018-06-18T10:27:33.184Z,2.00
2018-06-18T10:30:01.484Z,2.27
2018-06-18T10:33:35.670Z,1.95
2018-06-18T10:36:09.456Z,2.02
2018-06-18T10:38:44.163Z,2.33
2018-06-18T10:41:18.443Z,2.70
2018-06-18T10:43:47.680Z,1.85
2018-06-18T10:46:15.947Z,1.77
2018-06-18T10:48:44.474Z,1.85
2018-06-18T10:51:13.262Z,1.50
2018-06-18T10:53:41.592Z,1.80
2018-06-18T10:56:12.406Z,1.52
2018-06-18T10:58:40.811Z,1.70
2018-06-18T11:01:12.433Z,1.62
2018-06-18T11:03:40.755Z,1.50
2018-06-18T11:06:14.402Z,1.27
2018-06-18T11:08:42.883Z,1.07
2018-06-18T11:11:11.264Z,1.47
2018-06-18T11:13:39.492Z,0.88
2018-06-18T11:16:07.924Z,1.12
2018-06-18T11:18:41.389Z,1.05
2018-06-18T11:22:18.941Z,0.88
2018-06-18T11:24:52.474Z,1.00
2018-06-18T11:27:20.785Z,1.15
2018-06-18T11:29:49.011Z,2.08
2018-06-18T11:32:17.378Z,1.10
2018-06-18T11:34:45.562Z,1.30
2018-06-18T11:37:14.795Z,1.10
2018-06-18T11:39:43.025Z,1.62
2018-06-18T11:42:11.348Z,1.37
2018-06-18T11:44:40.595Z,1.60
2018-06-18T11:47:08.853Z,1.32
2018-06-18T11:49:37.157Z,1.35
2018-06-18T11:52:05.548Z,1.30
2018-06-18T11:54:33.823Z,1.60
2018-06-18T11:57:02.136Z,1.62
2018-06-18T11:59:35.655Z,1.77
2018-06-18T12:02:09.121Z,2.30
2018-06-18T12:04:42.577Z,2.15
2018-06-18T12:07:16.351Z,1.87
2018-06-18T12:09:44.608Z,1.70
2018-06-18T12:12:12.754Z,2.15
2018-06-18T12:14:40.968Z,1.95
2018-06-18T12:17:09.163Z,1.80
2018-06-18T12:19:37.392Z,1.70
2018-06-18T12:22:04.672Z,1.75
2018-06-18T12:24:32.897Z,2.20
2018-06-18T12:27:01.644Z,1.85
2018-06-18T12:29:29.946Z,2.35
2018-06-18T12:31:58.164Z,1.80
2018-06-18T12:34:26.583Z,2.15
2018-06-18T12:36:54.840Z,2.30
2018-06-18T12:39:23.079Z,2.67
2018-06-18T12:41:56.406Z,2.35
2018-06-18T12:44:24.656Z,2.37
2018-06-18T12:48:01.745Z,1.98
2018-06-18T12:50:35.298Z,2.27
2018-06-18T12:53:09.613Z,1.80
2018-06-18T12:55:43.163Z,1.75
2018-06-18T12:58:11.400Z,2.40
2018-06-18T13:00:40.539Z,1.92
2018-06-18T13:03:11.672Z,2.08
2018-06-18T13:05:40.000Z,1.90
2018-06-18T13:08:08.362Z,1.92
2018-06-18T13:10:36.607Z,2.40
2018-06-18T13:13:04.867Z,1.62
2018-06-18T13:15:33.164Z,1.92
2018-06-18T13:18:01.457Z,2.45
2018-06-18T13:20:29.807Z,2.00
2018-06-18T13:22:58.204Z,2.40
2018-06-18T13:25:26.582Z,2.17
2018-06-18T13:28:00.198Z,2.02
2018-06-18T13:30:28.891Z,2.77
2018-06-18T13:32:58.462Z,1.85
2018-06-18T13:35:27.680Z,2.05
2018-06-18T13:38:02.178Z,1.62
2018-06-18T13:40:35.964Z,1.60
2018-06-18T13:43:09.636Z,1.77
2018-06-18T13:45:40.891Z,1.98
2018-06-18T13:48:14.393Z,1.98
2018-06-18T13:50:42.732Z,1.87
2018-06-18T13:53:10.933Z,1.70
2018-06-18T13:55:39.315Z,1.45
2018-06-18T13:58:07.696Z,1.92
2018-06-18T14:00:36.121Z,1.82
2018-06-18T14:03:05.925Z,1.90
2018-06-18T14:05:34.174Z,1.87
2018-06-18T14:08:02.682Z,2.02
2018-06-18T14:10:31.967Z,2.10
2018-06-18T14:13:00.391Z,2.12
2018-06-18T14:15:28.821Z,1.87
2018-06-18T14:17:57.148Z,1.90
2018-06-18T14:20:26.576Z,1.72
2018-06-18T14:22:55.075Z,1.77
2018-06-18T14:25:23.343Z,2.15
2018-06-18T14:27:51.620Z,1.95
2018-06-18T14:30:25.278Z,1.90
2018-06-18T14:32:58.821Z,1.87
2018-06-18T14:35:32.386Z,1.75
2018-06-18T14:38:06.012Z,2.20
2018-06-18T14:40:34.387Z,1.70
2018-06-18T14:43:02.702Z,1.60
2018-06-18T14:45:31.006Z,2.00
2018-06-18T14:47:59.378Z,1.57
2018-06-18T14:50:27.701Z,1.80
2018-06-18T14:52:56.050Z,1.60
2018-06-18T14:55:24.272Z,2.02
2018-06-18T14:57:52.642Z,1.80
2018-06-18T15:00:26.338Z,2.10
2018-06-18T15:02:54.915Z,1.85
2018-06-18T15:05:24.288Z,2.15
2018-06-18T15:07:52.522Z,2.30
2018-06-18T15:10:20.825Z,1.85
2018-06-18T15:12:52.169Z,2.00
2018-06-18T15:15:25.735Z,2.27
2018-06-18T15:17:54.036Z,2.62
2018-06-18T15:20:23.122Z,2.52
2018-06-18T15:22:57.975Z,2.02
2018-06-18T15:25:27.889Z,2.33
2018-06-18T15:27:56.977Z,2.77
2018-06-18T15:30:25.258Z,2.83
2018-06-18T15:32:53.476Z,2.35
2018-06-18T15:35:21.729Z,2.45
2018-06-18T15:37:49.972Z,2.22
2018-06-18T15:40:18.230Z,2.12
2018-06-18T15:42:46.503Z,2.50
2018-06-18T15:45:14.740Z,2.27
2018-06-18T15:47:43.023Z,2.33
2018-06-18T15:50:11.265Z,2.77
2018-06-18T15:52:39.682Z,2.40
2018-06-18T15:55:08.201Z,2.45
2018-06-18T15:57:37.518Z,2.70
2018-06-18T16:00:05.915Z,2.33
2018-06-18T16:02:34.221Z,2.40
2018-06-18T16:05:02.890Z,2.33
2018-06-18T16:07:31.183Z,2.65
2018-06-18T16:09:59.507Z,2.80
2018-06-18T16:12:27.736Z,2.47
2018-06-18T16:14:56.553Z,2.30
2018-06-18T16:17:24.847Z,2.58
2018-06-18T16:19:53.156Z,2.30
2018-06-18T16:22:21.430Z,2.50
2018-06-18T16:24:49.708Z,2.60
2018-06-18T16:27:17.928Z,3.08
2018-06-18T16:29:46.241Z,2.50
2018-06-18T16:32:14.500Z,2.85
2018-06-18T16:34:42.718Z,2.58
2018-06-18T16:37:10.965Z,2.83
2018-06-18T16:39:39.176Z,2.50
2018-06-18T16:42:07.390Z,2.60
2018-06-18T16:44:35.607Z,2.70
2018-06-18T16:47:03.853Z,2.80
2018-06-18T16:49:32.121Z,2.90
2018-06-18T16:52:00.376Z,2.83
2018-06-18T16:54:28.652Z,2.35
2018-06-18T16:56:56.881Z,3.02
2018-06-18T16:59:25.144Z,2.55
2018-06-18T17:01:53.364Z,3.08
2018-06-18T17:04:21.619Z,2.50
2018-06-18T17:06:49.950Z,2.45
2018-06-18T17:09:18.179Z,2.72
2018-06-18T17:11:46.408Z,2.33
2018-06-18T17:14:14.680Z,3.00
2018-06-18T17:16:43.009Z,2.30
2018-06-18T17:19:11.164Z,2.35
2018-06-18T17:21:39.415Z,2.90
2018-06-18T17:24:07.903Z,2.62
2018-06-18T17:26:36.180Z,2.40
2018-06-18T17:29:04.463Z,2.80
2018-06-18T17:31:32.748Z,3.08
2018-06-18T17:34:01.019Z,2.42
2018-06-18T17:36:29.221Z,2.55
2018-06-18T17:38:57.495Z,2.58
2018-06-18T17:41:25.723Z,2.40
2018-06-18T17:43:54.004Z,2.60
2018-06-18T17:46:22.281Z,4.03
2018-06-18T17:48:51.183Z,3.42
2018-06-18T17:51:19.476Z,2.50
2018-06-18T17:53:47.848Z,2.92
2018-06-18T17:56:16.144Z,2.45
2018-06-18T17:58:44.794Z,2.70
2018-06-18T18:01:13.128Z,2.37
2018-06-18T18:03:41.398Z,2.42
2018-06-18T18:06:09.753Z,2.50
2018-06-18T18:08:38.050Z,2.80
2018-06-18T18:11:06.338Z,3.20
2018-06-18T18:13:34.696Z,2.85
2018-06-18T18:16:02.913Z,3.22
2018-06-18T18:18:31.300Z,2.60
2018-06-18T18:20:59.653Z,2.80
2018-06-18T18:23:28.053Z,1.98
2018-06-18T18:25:56.596Z,1.72
2018-06-18T18:28:24.933Z,1.75
2018-06-18T18:30:53.259Z,2.00
2018-06-18T18:33:21.617Z,1.98
2018-06-18T18:35:50.146Z,1.95
2018-06-18T18:38:18.583Z,1.70
2018-06-18T18:40:46.929Z,1.98
2018-06-18T18:43:15.242Z,2.27
2018-06-18T18:45:43.463Z,2.22
2018-06-18T18:48:12.319Z,2.10
2018-06-18T18:50:40.677Z,2.22
2018-06-18T18:53:08.968Z,2.08
2018-06-18T18:55:53.139Z,2.67
2018-06-18T18:58:48.627Z,2.33
2018-06-18T19:01:17.136Z,2.77
2018-06-18T19:03:47.864Z,2.67
2018-06-18T19:06:16.094Z,2.50
2018-06-18T19:08:44.635Z,2.30
2018-06-18T19:11:12.900Z,2.40
2018-06-18T19:13:41.097Z,2.33
2018-06-18T19:16:09.928Z,2.10
2018-06-18T19:18:39.656Z,2.27
2018-06-18T19:21:09.496Z,2.00
2018-06-18T19:23:37.988Z,1.80
2018-06-18T19:26:06.212Z,1.87
2018-06-18T19:28:35.669Z,1.62
2018-06-18T19:31:06.724Z,1.72
2018-06-18T19:33:42.437Z,2.15
2018-06-18T19:36:10.696Z,1.90
2018-06-18T19:38:39.031Z,2.20
2018-06-18T19:41:07.678Z,2.10
2018-06-18T19:43:36.009Z,1.90
2018-06-18T19:46:04.665Z,1.65
2018-06-18T19:48:40.428Z,1.57
2018-06-18T19:51:08.673Z,1.70
2018-06-18T19:53:36.976Z,1.87
2018-06-18T19:56:05.369Z,1.45
2018-06-18T19:58:33.681Z,1.42
2018-06-18T20:01:04.147Z,1.40
2018-06-18T20:03:31.559Z,1.37
2018-06-18T20:05:59.788Z,1.22
2018-06-18T20:08:29.813Z,1.70
2018-06-18T20:10:58.052Z,1.60
2018-06-18T20:13:26.336Z,1.70
2018-06-18T20:15:54.544Z,1.40
2018-06-18T20:18:22.950Z,1.60
2018-06-18T20:20:51.179Z,1.90
2018-06-18T20:23:21.688Z,1.85
2018-06-18T20:25:52.888Z,1.90
2018-06-18T20:28:21.116Z,1.75
2018-06-18T20:30:49.397Z,1.55
2018-06-18T20:33:19.176Z,2.15
2018-06-18T20:35:59.004Z,1.80
2018-06-18T20:38:28.690Z,2.00
2018-06-18T20:40:56.910Z,1.90
2018-06-18T20:43:27.695Z,1.85
2018-06-18T20:45:56.005Z,2.00
2018-06-18T20:48:24.259Z,2.15
2018-06-18T20:50:52.563Z,1.90
2018-06-18T20:53:20.876Z,1.60
2018-06-18T20:55:49.114Z,2.37
2018-06-18T20:58:17.429Z,1.80
2018-06-18T21:00:45.761Z,2.17
2018-06-18T21:03:14.147Z,2.47
2018-06-18T21:05:42.418Z,2.58
2018-06-18T21:08:10.852Z,2.47
2018-06-18T21:10:39.122Z,2.77
2018-06-18T21:13:07.463Z,2.83
2018-06-18T21:15:35.757Z,2.20
2018-06-18T21:18:03.999Z,2.60
2018-06-18T21:20:32.278Z,2.00
2018-06-18T21:23:00.638Z,2.40
2018-06-18T21:25:28.877Z,2.47
2018-06-18T21:27:57.204Z,2.42
2018-06-18T21:30:25.745Z,2.02
2018-06-18T21:32:54.056Z,2.80
2018-06-18T21:35:22.418Z,2.70
2018-06-18T21:37:50.843Z,2.55
2018-06-18T21:40:19.161Z,2.60
2018-06-18T21:42:47.409Z,2.58
2018-06-18T21:45:20.050Z,2.50
2018-06-18T21:47:48.892Z,2.30
2018-06-18T21:50:17.664Z,2.12
2018-06-18T21:52:46.017Z,2.15
2018-06-18T21:55:14.580Z,2.20
2018-06-18T21:57:42.909Z,2.45
2018-06-18T22:00:21.035Z,2.58
2018-06-18T22:02:49.433Z,2.15
2018-06-18T22:05:17.759Z,2.30
2018-06-18T22:07:46.105Z,2.60
2018-06-18T22:10:14.397Z,2.37
2018-06-18T22:12:42.660Z,2.47
2018-06-18T22:15:11.487Z,2.58
2018-06-18T22:17:39.751Z,2.77
2018-06-18T22:20:08.035Z,2.67
2018-06-18T22:22:36.598Z,3.37
2018-06-18T22:25:06.751Z,3.17
2018-06-18T22:27:36.000Z,2.80
2018-06-18T22:30:11.323Z,3.05
2018-06-18T22:32:40.765Z,2.58
2018-06-18T22:35:09.454Z,2.70
2018-06-18T22:37:38.930Z,3.08
2018-06-18T22:40:07.774Z,2.70
2018-06-18T22:42:36.120Z,2.72
2018-06-18T22:45:04.899Z,3.08
2018-06-18T22:47:33.212Z,2.50
2018-06-18T22:50:01.453Z,2.65
2018-06-18T22:52:30.441Z,2.45
2018-06-18T22:54:58.767Z,2.58
2018-06-18T22:57:27.222Z,2.85
2018-06-18T22:59:55.506Z,2.70
2018-06-18T23:02:26.187Z,3.17
2018-06-18T23:04:54.642Z,2.90
2018-06-18T23:07:23.006Z,2.90
2018-06-18T23:09:51.355Z,2.72
2018-06-18T23:12:21.077Z,2.72
2018-06-18T23:14:49.657Z,3.33
2018-06-18T23:17:17.927Z,2.45
2018-06-18T23:19:46.217Z,3.45
2018-06-18T23:22:14.471Z,2.52
2018-06-18T23:24:42.760Z,3.40
2018-06-18T23:27:10.996Z,3.45
2018-06-18T23:29:39.242Z,2.90
2018-06-18T23:32:07.509Z,2.80
2018-06-18T23:34:35.800Z,2.85
2018-06-18T23:37:04.075Z,2.83
2018-06-18T23:39:32.416Z,3.27
2018-06-18T23:42:00.964Z,3.67
2018-06-18T23:44:29.244Z,2.90
2018-06-18T23:46:57.727Z,2.70
2018-06-18T23:49:26.056Z,2.58
2018-06-18T23:51:54.400Z,2.60
2018-06-18T23:54:22.739Z,3.15
2018-06-18T23:56:50.995Z,3.05
2018-06-18T23:59:19.290Z,3.12
